createdAt,value
2023-03-15T00:01:18.641Z,2.50
2023-03-15T00:03:47.018Z,2.80
2023-03-15T00:06:15.529Z,3.20
2023-03-15T00:08:48.187Z,3.00
2023-03-15T00:11:18.373Z,2.80
2023-03-15T00:13:46.892Z,2.90
2023-03-15T00:16:17.864Z,2.80
2023-03-15T00:18:47.193Z,2.70
2023-03-15T00:21:15.505Z,2.80
2023-03-15T00:23:43.319Z,2.80
2023-03-15T00:26:11.166Z,2.80
2023-03-15T00:28:39.282Z,2.40
2023-03-15T00:31:18.040Z,2.40
2023-03-15T00:33:46.278Z,2.80
2023-03-15T00:36:14.527Z,2.40
2023-03-15T00:38:45.096Z,2.50
2023-03-15T00:41:14.684Z,2.80
2023-03-15T00:43:46.645Z,2.10
2023-03-15T00:46:16.273Z,2.50
2023-03-15T00:48:47.179Z,2.50
2023-03-15T00:51:16.187Z,2.40
2023-03-15T00:53:44.742Z,2.20
2023-03-15T00:56:14.900Z,2.40
2023-03-15T00:58:43.376Z,2.80
2023-03-15T01:01:18.928Z,2.70
2023-03-15T01:03:46.896Z,2.20
2023-03-15T01:06:16.092Z,1.90
2023-03-15T01:08:44.657Z,1.70
2023-03-15T01:11:14.687Z,2.20
2023-03-15T01:13:42.904Z,2.00
2023-03-15T01:16:11.792Z,2.00
2023-03-15T01:18:39.823Z,2.10
2023-03-15T01:21:09.137Z,2.20
2023-03-15T01:23:37.129Z,1.90
2023-03-15T01:26:06.265Z,1.80
2023-03-15T01:28:34.131Z,2.40
2023-03-15T01:31:02.048Z,1.70
2023-03-15T01:33:30.600Z,1.80
2023-03-15T01:36:03.521Z,1.70
2023-03-15T01:38:31.942Z,1.90
2023-03-15T01:41:00.497Z,1.90
2023-03-15T01:43:29.942Z,1.70
2023-03-15T01:46:07.112Z,1.80
2023-03-15T01:51:06.184Z,1.50
2023-03-15T01:53:34.935Z,2.10
2023-03-15T01:56:06.593Z,1.70
2023-03-15T01:58:36.962Z,1.90
2023-03-15T02:01:05.242Z,1.60
2023-03-15T02:03:38.982Z,1.80
2023-03-15T02:06:08.891Z,1.70
2023-03-15T02:08:39.891Z,2.20
2023-03-15T02:11:08.059Z,2.00
2023-03-15T02:13:36.518Z,1.70
2023-03-15T02:16:07.055Z,1.90
2023-03-15T02:18:35.915Z,2.00
2023-03-15T02:21:24.007Z,2.30
2023-03-15T02:24:00.797Z,2.60
2023-03-15T02:26:50.193Z,1.50
2023-03-15T02:29:18.106Z,1.60
2023-03-15T02:31:45.971Z,1.90
2023-03-15T02:34:13.863Z,2.10
2023-03-15T02:36:41.639Z,2.00
2023-03-15T02:39:16.755Z,2.00
2023-03-15T02:41:46.803Z,2.30
2023-03-15T02:44:34.991Z,1.50
2023-03-15T02:47:08.003Z,1.80
2023-03-15T02:49:38.967Z,1.80
2023-03-15T02:52:07.036Z,2.30
2023-03-15T02:54:34.884Z,2.10
2023-03-15T02:57:04.092Z,2.00
2023-03-15T02:59:32.350Z,1.70
2023-03-15T03:02:00.364Z,1.90
2023-03-15T03:04:28.696Z,1.60
2023-03-15T03:06:56.940Z,2.00
2023-03-15T03:09:25.002Z,1.70
2023-03-15T03:11:52.787Z,1.60
2023-03-15T03:14:24.187Z,2.20
2023-03-15T03:16:52.496Z,2.00
2023-03-15T03:19:25.689Z,1.90
2023-03-15T03:21:54.447Z,1.80
2023-03-15T03:24:22.712Z,2.10
2023-03-15T03:26:50.577Z,1.80
2023-03-15T03:29:18.285Z,1.90
2023-03-15T03:31:46.068Z,2.50
2023-03-15T03:34:15.676Z,1.80
2023-03-15T03:36:44.014Z,2.10
2023-03-15T03:39:11.912Z,1.80
2023-03-15T03:41:39.884Z,1.90
2023-03-15T03:44:07.733Z,2.10
2023-03-15T03:46:36.347Z,1.90
2023-03-15T03:49:04.075Z,2.30
2023-03-15T03:51:34.131Z,1.70
2023-03-15T03:54:02.177Z,1.80
2023-03-15T03:56:30.711Z,2.00
2023-03-15T03:58:58.579Z,2.10
2023-03-15T04:01:26.628Z,1.70
2023-03-15T04:03:54.902Z,1.70
2023-03-15T04:06:23.390Z,1.70
2023-03-15T04:08:51.554Z,1.80
2023-03-15T04:11:20.099Z,2.30
2023-03-15T04:13:48.048Z,2.00
2023-03-15T04:16:15.877Z,2.60
2023-03-15T04:18:43.868Z,2.30
2023-03-15T04:21:13.754Z,2.00
2023-03-15T04:23:41.716Z,1.60
2023-03-15T04:26:09.560Z,1.60
2023-03-15T04:28:38.295Z,1.70
2023-03-15T04:31:10.619Z,1.70
2023-03-15T04:33:38.605Z,2.00
2023-03-15T04:36:06.614Z,1.30
2023-03-15T04:38:35.679Z,1.70
2023-03-15T04:41:10.969Z,1.80
2023-03-15T04:46:08.654Z,1.90
2023-03-15T04:48:36.674Z,1.40
2023-03-15T04:51:04.676Z,2.20
2023-03-15T04:53:33.107Z,1.60
2023-03-15T04:56:03.689Z,2.00
2023-03-15T04:58:32.947Z,1.90
2023-03-15T05:01:00.674Z,2.10
2023-03-15T05:03:29.288Z,1.90
2023-03-15T05:05:57.461Z,2.10
2023-03-15T05:08:25.230Z,2.10
2023-03-15T05:10:53.298Z,2.30
2023-03-15T05:13:21.364Z,1.80
2023-03-15T05:15:49.334Z,2.30
2023-03-15T05:18:17.224Z,2.00
2023-03-15T05:20:45.130Z,1.70
2023-03-15T05:23:13.816Z,2.00
2023-03-15T05:25:42.030Z,2.10
2023-03-15T05:28:10.704Z,2.10
2023-03-15T05:30:38.476Z,3.00
2023-03-15T05:33:06.410Z,4.80
2023-03-15T05:35:34.649Z,4.20
2023-03-15T05:38:03.814Z,3.10
2023-03-15T05:40:33.277Z,2.90
2023-03-15T05:43:01.275Z,2.80
2023-03-15T05:45:29.151Z,2.40
2023-03-15T05:47:57.027Z,2.10
2023-03-15T05:50:24.889Z,2.40
2023-03-15T05:52:53.259Z,2.50
2023-03-15T05:55:21.125Z,2.80
2023-03-15T05:57:49.102Z,2.60
2023-03-15T06:00:17.977Z,2.60
2023-03-15T06:02:46.776Z,2.80
2023-03-15T06:05:14.822Z,2.30
2023-03-15T06:07:42.929Z,2.80
2023-03-15T06:10:11.285Z,3.20
2023-03-15T06:12:39.179Z,3.40
2023-03-15T06:15:07.311Z,2.90
2023-03-15T06:17:35.362Z,3.30
2023-03-15T06:20:03.532Z,2.60
2023-03-15T06:22:31.787Z,2.30
2023-03-15T06:24:59.929Z,2.50
2023-03-15T06:27:28.135Z,2.50
2023-03-15T06:29:57.571Z,2.90
2023-03-15T06:32:25.648Z,1.90
2023-03-15T06:34:53.433Z,2.10
2023-03-15T06:37:34.303Z,2.50
2023-03-15T06:40:07.418Z,2.40
2023-03-15T06:42:36.182Z,2.20
2023-03-15T06:45:05.165Z,2.20
2023-03-15T06:47:33.076Z,2.20
2023-03-15T06:50:00.994Z,3.90
2023-03-15T06:52:29.070Z,2.00
2023-03-15T06:54:57.242Z,2.10
2023-03-15T06:57:25.411Z,2.00
2023-03-15T06:59:54.311Z,2.40
2023-03-15T07:02:22.519Z,2.60
2023-03-15T07:04:50.770Z,2.70
2023-03-15T07:07:18.829Z,2.20
2023-03-15T07:09:47.923Z,2.40
2023-03-15T07:12:15.954Z,2.00
2023-03-15T07:14:44.073Z,2.40
2023-03-15T07:17:13.228Z,5.50
2023-03-15T07:19:50.277Z,2.50
2023-03-15T07:22:24.667Z,2.20
2023-03-15T07:24:52.532Z,2.60
2023-03-15T07:27:20.807Z,2.50
2023-03-15T07:29:48.867Z,2.50
2023-03-15T07:32:17.696Z,2.30
2023-03-15T07:34:46.918Z,2.50
2023-03-15T07:37:15.093Z,2.80
2023-03-15T07:39:42.894Z,2.50
2023-03-15T07:42:11.598Z,3.00
2023-03-15T07:44:39.545Z,2.80
2023-03-15T07:47:07.585Z,3.60
2023-03-15T07:49:36.712Z,2.80
2023-03-15T07:52:06.915Z,3.30
2023-03-15T07:54:35.018Z,2.70
2023-03-15T07:57:03.434Z,3.00
2023-03-15T07:59:31.898Z,2.80
2023-03-15T08:02:02.402Z,2.60
2023-03-15T08:04:30.952Z,2.60
2023-03-15T08:06:59.049Z,2.80
2023-03-15T08:09:26.946Z,2.80
2023-03-15T08:11:54.930Z,2.50
2023-03-15T08:14:22.981Z,2.60
2023-03-15T08:16:51.365Z,2.50
2023-03-15T08:19:19.599Z,2.60
2023-03-15T08:21:48.007Z,2.60
2023-03-15T08:24:16.151Z,2.70
2023-03-15T08:26:44.051Z,2.80
2023-03-15T08:29:11.964Z,2.10
2023-03-15T08:31:39.801Z,2.00
2023-03-15T08:34:07.693Z,2.30
2023-03-15T08:36:36.183Z,2.60
2023-03-15T08:39:05.621Z,4.20
2023-03-15T08:41:33.464Z,27.60
2023-03-15T08:44:01.310Z,12.80
2023-03-15T08:46:29.251Z,8.90
2023-03-15T08:48:57.038Z,4.00
2023-03-15T08:51:26.566Z,8.00
2023-03-15T08:53:54.338Z,4.90
2023-03-15T08:56:22.236Z,3.60
2023-03-15T08:58:50.360Z,7.10
2023-03-15T09:01:18.133Z,5.40
2023-03-15T09:03:45.903Z,3.40
2023-03-15T09:06:13.776Z,6.80
2023-03-15T09:08:42.085Z,7.30
2023-03-15T09:11:10.854Z,2.90
2023-03-15T09:13:39.440Z,3.00
2023-03-15T09:16:07.994Z,2.70
2023-03-15T09:18:35.760Z,3.80
2023-03-15T09:21:05.253Z,2.80
2023-03-15T09:23:33.378Z,2.70
2023-03-15T09:26:01.424Z,2.80
2023-03-15T09:28:29.485Z,3.50
2023-03-15T09:30:59.539Z,3.70
2023-03-15T09:33:27.985Z,2.80
2023-03-15T09:35:57.129Z,3.70
2023-03-15T09:38:25.054Z,3.90
2023-03-15T09:40:57.299Z,3.30
2023-03-15T09:43:57.144Z,2.70
2023-03-15T09:46:25.986Z,4.20
2023-03-15T09:48:56.260Z,3.90
2023-03-15T09:51:32.382Z,3.50
2023-03-15T09:54:32.629Z,3.50
2023-03-15T09:57:04.546Z,3.00
2023-03-15T09:59:36.204Z,3.00
2023-03-15T10:02:23.031Z,2.00
2023-03-15T10:04:56.039Z,3.70
2023-03-15T10:07:23.946Z,3.70
2023-03-15T10:09:51.779Z,8.50
2023-03-15T10:12:24.358Z,5.80
2023-03-15T10:14:55.245Z,4.40
2023-03-15T10:17:41.788Z,2.90
2023-03-15T10:20:12.450Z,3.00
2023-03-15T10:22:55.449Z,2.00
2023-03-15T10:25:28.092Z,2.30
2023-03-15T10:27:55.923Z,2.20
2023-03-15T10:30:25.897Z,2.60
2023-03-15T10:33:05.850Z,2.40
2023-03-15T10:35:33.959Z,2.00
2023-03-15T10:38:02.784Z,2.20
2023-03-15T10:40:47.409Z,2.00
2023-03-15T10:43:21.086Z,2.10
2023-03-15T10:45:59.191Z,2.30
2023-03-15T10:48:37.654Z,2.20
2023-03-15T10:51:18.252Z,1.60
2023-03-15T10:54:04.413Z,2.40
2023-03-15T10:56:35.369Z,1.90
2023-03-15T10:59:12.597Z,2.30
2023-03-15T11:01:41.225Z,2.30
2023-03-15T11:04:15.366Z,2.30
2023-03-15T11:06:48.387Z,2.50
2023-03-15T11:09:23.813Z,3.00
2023-03-15T11:12:02.407Z,2.40
2023-03-15T11:14:33.723Z,4.10
2023-03-15T11:17:02.266Z,2.10
2023-03-15T11:19:31.624Z,1.90
2023-03-15T11:22:01.299Z,1.80
2023-03-15T11:24:30.925Z,4.60
2023-03-15T11:27:01.776Z,4.60
2023-03-15T11:29:33.952Z,2.80
2023-03-15T11:32:03.784Z,4.30
2023-03-15T11:34:50.373Z,2.10
2023-03-15T11:37:21.485Z,2.10
2023-03-15T11:40:05.048Z,2.10
2023-03-15T11:42:40.470Z,2.20
2023-03-15T11:45:29.702Z,2.80
2023-03-15T11:48:01.792Z,3.20
2023-03-15T11:50:30.212Z,3.80
2023-03-15T11:53:03.672Z,4.80
2023-03-15T11:55:33.163Z,4.30
2023-03-15T11:58:20.236Z,3.30
2023-03-15T12:00:53.916Z,4.90
2023-03-15T12:03:28.417Z,7.10
2023-03-15T12:05:59.852Z,6.10
2023-03-15T12:08:50.784Z,2.20
2023-03-15T12:11:22.352Z,1.20
2023-03-15T12:14:02.789Z,2.50
2023-03-15T12:16:31.124Z,2.40
2023-03-15T12:19:01.356Z,2.50
2023-03-15T12:21:29.076Z,3.00
2023-03-15T12:24:05.930Z,3.40
2023-03-15T12:26:44.983Z,3.00
2023-03-15T12:29:15.763Z,4.30
2023-03-15T12:31:52.649Z,3.10
2023-03-15T12:34:28.834Z,2.50
2023-03-15T12:36:57.992Z,2.80
2023-03-15T12:39:38.365Z,3.10
2023-03-15T12:42:06.382Z,3.40
2023-03-15T12:44:39.524Z,4.80
2023-03-15T12:47:08.718Z,2.90
2023-03-15T12:49:43.570Z,2.70
2023-03-15T12:52:11.330Z,2.00
2023-03-15T12:54:39.269Z,2.60
2023-03-15T12:57:10.296Z,5.40
2023-03-15T12:59:47.171Z,5.70
2023-03-15T13:02:43.969Z,3.30
2023-03-15T13:05:22.515Z,3.10
2023-03-15T13:07:56.599Z,3.10
2023-03-15T13:10:36.101Z,4.20
2023-03-15T13:13:07.983Z,6.40
2023-03-15T13:15:44.926Z,5.80
2023-03-15T13:18:18.167Z,3.50
2023-03-15T13:21:06.592Z,2.20
2023-03-15T13:23:35.620Z,2.40
2023-03-15T13:26:33.404Z,2.10
2023-03-15T13:29:02.309Z,1.70
2023-03-15T13:31:31.614Z,2.10
2023-03-15T13:34:18.960Z,2.10
2023-03-15T13:36:48.681Z,1.90
2023-03-15T13:39:27.678Z,1.50
2023-03-15T13:42:00.479Z,2.00
2023-03-15T13:44:29.074Z,2.50
2023-03-15T13:46:59.143Z,1.90
2023-03-15T13:49:31.184Z,2.10
2023-03-15T13:51:59.259Z,2.60
2023-03-15T13:54:30.728Z,2.60
2023-03-15T13:57:19.153Z,4.70
2023-03-15T13:59:52.829Z,11.50
2023-03-15T14:02:27.483Z,5.90
2023-03-15T14:04:59.802Z,2.40
2023-03-15T14:07:29.667Z,1.60
2023-03-15T14:10:08.020Z,1.50
2023-03-15T14:12:39.519Z,1.10
2023-03-15T14:15:14.965Z,1.40
2023-03-15T14:17:51.550Z,1.80
2023-03-15T14:20:19.442Z,1.20
2023-03-15T14:22:47.197Z,1.90
2023-03-15T14:25:19.296Z,2.30
2023-03-15T14:27:47.234Z,1.90
2023-03-15T14:30:22.507Z,1.90
2023-03-15T14:32:54.608Z,2.70
2023-03-15T14:35:29.627Z,2.40
2023-03-15T14:38:02.436Z,1.90
2023-03-15T14:40:37.626Z,1.90
2023-03-15T14:43:06.440Z,2.30
2023-03-15T14:45:35.274Z,3.00
2023-03-15T14:48:22.709Z,3.90
2023-03-15T14:50:50.880Z,3.10
2023-03-15T14:53:21.110Z,3.70
2023-03-15T14:55:49.085Z,5.80
2023-03-15T14:58:20.979Z,4.50
2023-03-15T15:00:53.510Z,2.30
2023-03-15T15:03:26.400Z,3.50
2023-03-15T15:05:55.048Z,3.50
2023-03-15T15:08:24.449Z,3.00
2023-03-15T15:10:56.087Z,2.10
2023-03-15T15:13:26.896Z,2.20
2023-03-15T15:15:56.777Z,2.60
2023-03-15T15:18:25.860Z,3.50
2023-03-15T15:20:56.392Z,3.50
2023-03-15T15:23:27.084Z,2.50
2023-03-15T15:26:06.111Z,2.50
2023-03-15T15:28:37.026Z,3.20
2023-03-15T15:31:07.326Z,2.50
2023-03-15T15:33:35.515Z,2.00
2023-03-15T15:36:04.596Z,2.10
2023-03-15T15:38:38.158Z,2.20
2023-03-15T15:41:11.775Z,1.60
2023-03-15T15:43:39.896Z,1.40
2023-03-15T15:46:09.449Z,1.20
2023-03-15T15:48:37.506Z,1.40
2023-03-15T15:51:18.863Z,1.20
2023-03-15T15:53:47.439Z,2.10
2023-03-15T15:56:16.026Z,1.70
2023-03-15T15:58:45.078Z,1.60
2023-03-15T16:01:14.029Z,2.70
2023-03-15T16:03:42.385Z,3.60
2023-03-15T16:06:28.453Z,3.70
2023-03-15T16:08:56.557Z,2.00
2023-03-15T16:11:27.427Z,2.10
2023-03-15T16:13:55.798Z,5.50
2023-03-15T16:16:23.795Z,6.60
2023-03-15T16:18:51.713Z,10.50
2023-03-15T16:21:26.612Z,6.80
2023-03-15T16:23:58.464Z,14.80
2023-03-15T16:26:26.772Z,15.70
2023-03-15T16:28:54.757Z,8.00
2023-03-15T16:31:22.752Z,2.80
2023-03-15T16:33:51.247Z,2.20
2023-03-15T16:36:20.244Z,2.10
2023-03-15T16:38:48.252Z,2.00
2023-03-15T16:41:16.534Z,2.00
2023-03-15T16:43:44.447Z,1.80
2023-03-15T16:46:13.709Z,1.90
2023-03-15T16:48:41.792Z,2.40
2023-03-15T16:51:11.678Z,3.10
2023-03-15T16:53:44.799Z,3.20
2023-03-15T16:56:13.788Z,3.60
2023-03-15T16:58:42.756Z,3.30
2023-03-15T17:01:11.482Z,3.00
2023-03-15T17:03:39.561Z,3.10
2023-03-15T17:06:14.185Z,3.20
2023-03-15T17:08:41.932Z,2.90
2023-03-15T17:11:10.277Z,2.70
2023-03-15T17:13:40.988Z,2.80
2023-03-15T17:16:19.107Z,2.40
2023-03-15T17:18:48.952Z,2.20
2023-03-15T17:21:21.173Z,2.40
2023-03-15T17:23:50.375Z,2.30
2023-03-15T17:26:20.056Z,2.20
2023-03-15T17:28:48.482Z,2.90
2023-03-15T17:31:24.882Z,4.40
2023-03-15T17:33:53.978Z,7.10
2023-03-15T17:36:23.674Z,7.00
2023-03-15T17:38:52.168Z,6.40
2023-03-15T17:41:20.713Z,5.30
2023-03-15T17:43:49.957Z,4.00
2023-03-15T17:46:18.736Z,3.70
2023-03-15T17:48:47.010Z,2.70
2023-03-15T17:51:17.834Z,2.30
2023-03-15T17:53:46.584Z,2.30
2023-03-15T17:56:15.050Z,1.90
2023-03-15T17:58:46.848Z,2.40
2023-03-15T18:01:18.141Z,1.90
2023-03-15T18:03:49.738Z,2.10
2023-03-15T18:06:19.430Z,1.90
2023-03-15T18:08:48.753Z,1.70
2023-03-15T18:11:21.130Z,1.40
2023-03-15T18:13:49.348Z,1.70
2023-03-15T18:16:18.188Z,2.10
2023-03-15T18:18:48.579Z,1.60
2023-03-15T18:21:19.011Z,1.70
2023-03-15T18:23:47.422Z,2.00
2023-03-15T18:26:15.634Z,2.20
2023-03-15T18:28:44.264Z,2.60
2023-03-15T18:31:13.591Z,3.10
2023-03-15T18:33:41.641Z,4.10
2023-03-15T18:36:11.722Z,4.00
2023-03-15T18:38:39.956Z,8.20
2023-03-15T18:41:19.848Z,8.70
2023-03-15T18:43:52.245Z,11.80
2023-03-15T18:46:26.607Z,13.90
2023-03-15T18:48:55.192Z,14.90
2023-03-15T18:51:28.412Z,16.00
2023-03-15T18:53:56.720Z,13.90
2023-03-15T18:56:26.707Z,13.40
2023-03-15T18:58:55.269Z,12.40
2023-03-15T19:01:24.697Z,11.00
2023-03-15T19:03:55.735Z,8.90
2023-03-15T19:06:24.724Z,7.40
2023-03-15T19:08:54.632Z,6.60
2023-03-15T19:11:26.236Z,5.90
2023-03-15T19:13:55.488Z,5.30
2023-03-15T19:16:24.036Z,5.00
2023-03-15T19:18:52.547Z,4.70
2023-03-15T19:21:20.816Z,4.70
2023-03-15T19:23:49.296Z,4.20
2023-03-15T19:26:18.052Z,4.20
2023-03-15T19:28:46.784Z,4.40
2023-03-15T19:31:15.632Z,4.50
2023-03-15T19:33:46.604Z,4.20
2023-03-15T19:36:15.128Z,4.60
2023-03-15T19:38:43.592Z,5.80
2023-03-15T19:41:13.124Z,7.50
2023-03-15T19:43:43.653Z,7.80
2023-03-15T19:46:14.029Z,9.20
2023-03-15T19:48:44.231Z,9.80
2023-03-15T19:51:12.939Z,7.40
2023-03-15T19:53:41.304Z,6.20
2023-03-15T19:56:10.104Z,5.50
2023-03-15T19:58:37.968Z,6.00
2023-03-15T20:01:06.744Z,6.10
2023-03-15T20:03:34.829Z,8.00
2023-03-15T20:06:07.334Z,7.70
2023-03-15T20:08:36.362Z,10.10
2023-03-15T20:11:05.398Z,8.20
2023-03-15T20:13:34.269Z,8.00
2023-03-15T20:16:03.899Z,8.60
2023-03-15T20:18:32.055Z,7.60
2023-03-15T20:21:01.099Z,7.00
2023-03-15T20:23:29.167Z,5.90
2023-03-15T20:26:04.268Z,5.70
2023-03-15T20:28:32.231Z,6.00
2023-03-15T20:31:00.217Z,5.90
2023-03-15T20:33:31.356Z,5.90
2023-03-15T20:35:59.303Z,6.30
2023-03-15T20:38:29.394Z,6.20
2023-03-15T20:40:57.292Z,6.00
2023-03-15T20:43:25.271Z,6.40
2023-03-15T20:45:59.789Z,5.90
2023-03-15T20:48:29.067Z,5.80
2023-03-15T20:50:58.111Z,5.60
2023-03-15T20:53:26.061Z,6.60
2023-03-15T20:55:53.943Z,5.90
2023-03-15T20:58:21.931Z,5.90
2023-03-15T21:00:49.900Z,5.90
2023-03-15T21:03:18.073Z,5.30
2023-03-15T21:05:46.195Z,5.70
2023-03-15T21:08:14.360Z,5.70
2023-03-15T21:10:42.314Z,5.30
2023-03-15T21:13:12.544Z,5.30
2023-03-15T21:15:45.986Z,5.30
2023-03-15T21:18:15.231Z,5.00
2023-03-15T21:20:43.209Z,5.30
2023-03-15T21:23:11.244Z,5.00
2023-03-15T21:25:39.224Z,5.50
2023-03-15T21:28:07.230Z,5.10
2023-03-15T21:30:35.264Z,5.80
2023-03-15T21:33:03.487Z,5.60
2023-03-15T21:35:31.532Z,6.10
2023-03-15T21:37:59.677Z,5.80
2023-03-15T21:40:28.172Z,6.50
2023-03-15T21:42:56.538Z,6.70
2023-03-15T21:45:25.354Z,7.20
2023-03-15T21:47:54.237Z,7.00
2023-03-15T21:50:23.378Z,6.90
2023-03-15T21:52:53.402Z,7.30
2023-03-15T21:55:22.625Z,6.90
2023-03-15T21:57:52.655Z,7.90
2023-03-15T22:00:23.428Z,7.20
2023-03-15T22:02:55.677Z,7.70
2023-03-15T22:05:25.206Z,7.90
2023-03-15T22:07:53.648Z,8.30
2023-03-15T22:10:22.919Z,7.90
2023-03-15T22:12:54.377Z,7.10
2023-03-15T22:15:22.750Z,6.40
2023-03-15T22:17:51.127Z,6.80
2023-03-15T22:20:19.044Z,6.50
2023-03-15T22:22:47.945Z,6.40
2023-03-15T22:25:16.685Z,6.40
2023-03-15T22:27:44.847Z,6.80
2023-03-15T22:30:14.074Z,6.30
2023-03-15T22:32:44.459Z,6.30
2023-03-15T22:35:16.449Z,7.10
2023-03-15T22:37:44.402Z,5.90
2023-03-15T22:40:15.820Z,6.70
2023-03-15T22:42:44.454Z,6.20
2023-03-15T22:45:12.584Z,7.10
2023-03-15T22:47:40.783Z,6.50
2023-03-15T22:50:11.038Z,6.60
2023-03-15T22:52:39.280Z,6.50
2023-03-15T22:55:08.027Z,6.60
2023-03-15T22:57:35.886Z,6.00
2023-03-15T23:00:07.390Z,6.20
2023-03-15T23:02:36.564Z,6.00
2023-03-15T23:05:04.908Z,6.90
2023-03-15T23:07:32.701Z,7.50
2023-03-15T23:10:01.221Z,7.50
2023-03-15T23:12:35.816Z,7.90
2023-03-15T23:15:05.130Z,7.30
2023-03-15T23:17:33.401Z,6.40
2023-03-15T23:20:01.375Z,6.10
2023-03-15T23:22:29.646Z,5.80
2023-03-15T23:24:58.249Z,5.50
2023-03-15T23:27:26.327Z,5.90
2023-03-15T23:29:55.253Z,7.00
2023-03-15T23:32:25.256Z,6.40
2023-03-15T23:34:53.637Z,7.30
2023-03-15T23:37:21.579Z,7.50
2023-03-15T23:39:49.322Z,7.40
2023-03-15T23:42:17.208Z,8.10
2023-03-15T23:44:45.060Z,6.80
2023-03-15T23:47:13.510Z,7.00
2023-03-15T23:49:43.649Z,7.50
2023-03-15T23:52:11.542Z,7.30
2023-03-15T23:54:41.351Z,9.00
2023-03-15T23:57:10.532Z,8.60
2023-03-15T23:59:39.007Z,7.90
